Ojibwa, Wisconsin
Current Conditions -  °F | °C
As of 4:35 PM on Tuesday 21 Oct 2014 (Local Time) from KRCX Reporting Station
Clear Clear  
Wind Chill: 13°   Ceiling: Unl
Heat Index: 13°   Visibility: 10mi
Dew Point:   Wind: 5mph
Humidity: 50%   Direction: 190°S
Pressure: 30.21"   Gusts: NA
Location:  45.8°N, 91.12°W
Report Text: KRCX 212135Z AUTO 19004KT 10SM CLR 13/02 A3021 RMK AO2 T01260023
Loading
Personal Weather Stations






























Interactive Weather Map
Tropical Storm Tracking
New forecast layout! Learn more

10-Day Weather Forecast

Advertisements
Track Severe Weather on mobile